• Join FlightAware (Why Join?)
  • Login
  • US Flag 
04:24AM EDT


 

Airport Tracker/Info


-or-


 

Live Flight TrackerFlight Track Log ✈ AWI3664 ✈ 31-Jul-2013 ✈ KAGS - KCLT

Flight Track Log - Related Links

Times and Time Zones

All times are in EDT time to prevent confusion due to time zone crossing. See the AWI3664 flight status page for this flight to view local times or setup timezone preferences in your user account.

Time Position Orientation Groundspeed Altitude Reporting Facility
EDT Latitude Longitude Course Direction KTS MPH feet Rate Location/Type
11:54AM 33.7411 -82.0325 350° North  Level FlightAware Approximate
11:54AM 33.5878 -82.0164 347° North 256 295 6,800  Level Atlanta Center
11:55AM 33.8349 -82.0519 350° North  Level FlightAware Approximate
11:55AM 33.6672 -82.0294 352° North 328 377 12,000  Level Atlanta Center
11:56AM 33.8941 -82.0642 350° North  Level FlightAware Approximate
11:56AM 33.7467 -82.0478 349° North 316 364 10,000  Level Atlanta Center
11:57AM 33.9534 -82.0764 350° North  Level FlightAware Approximate
11:57AM 33.8283 -82.0633 351° North 303 349 10,900  Level Atlanta Center
11:58AM 34.0126 -82.0888 350° North  Level FlightAware Approximate
11:58AM 33.9017 -82.0792 350° North 298 343 12,100  Level Atlanta Center
11:59AM 34.0718 -82.1014 347° North  Level FlightAware Approximate
11:59AM 33.9856 -82.0972 350° North 298 343 12,000  Level Atlanta Center
12:00PM 34.1519 -82.1232 347° North  Level FlightAware Approximate
12:00PM 34.0714 -82.1153 350° North 298 343 12,000  Level Atlanta Center
12:01PM 34.1636 -82.1358 350° North 309 356 12,000  Level Atlanta Center
12:02PM 34.2511 -82.1289 North 315 362 12,000  Level Atlanta Center
12:03PM 34.3125 -82.0494 47° Northeast 294 338 12,000  Level Atlanta Center
12:04PM 34.3758 -81.9750 44° Northeast 301 346 12,000  Level Atlanta Center
12:05PM 34.4414 -81.8953 45° Northeast 312 359 12,000  Level Atlanta Center
12:06PM 34.5067 -81.8156 45° Northeast 323 372 12,000  Level Atlanta Center
12:07PM 34.5742 -81.7356 44° Northeast 328 377 12,000  Level Atlanta Center
12:08PM 34.6414 -81.6581 43° Northeast 328 377 12,000  Level Atlanta Center
12:09PM 34.7025 -81.5831 45° Northeast 330 380 12,000  Level Atlanta Center
12:10PM 34.7758 -81.4897 46° Northeast 323 372 12,000  Level Atlanta Center
12:11PM 34.8367 -81.4119 46° Northeast 328 377 12,000  Level Atlanta Center
12:12PM 34.8997 -81.3314 46° Northeast 328 377 12,000  Level Atlanta Center
12:13PM 34.9647 -81.2483 46° Northeast 328 377 12,000 -60 Level Atlanta Center
12:14PM 35.0275 -81.1650 47° Northeast 328 377 11,900 -660 Descending Atlanta Center
12:16PM 35.1003 -81.0761 45° Northeast 331 381 10,700 -1,140 Descending Atlanta Center
12:16PM 35.1753 -81.0633 North 306 352 9,700 -1,200 Descending Atlanta Center
12:18PM 35.2664 -81.0682 356° North  Level FlightAware Approximate
12:19PM 35.3511 -81.0850 356° North 285 328 7,200  Level Atlanta Center
12:19PM 35.4158 -81.0903 356° North 276 318 6,100 -1,260 Descending Atlanta Center
12:20PM 35.4822 -81.0753 10° North 248 285 5,000 -840 Descending Atlanta Center
12:21PM 35.4642 -81.0222 113° Southeast 191 220 4,500 -960 Descending Atlanta Center
12:23PM 35.4067 -80.9733 145° Southeast 217 250 3,000 -780 Descending Atlanta Center
12:23PM 35.3606 -80.9700 177° South 170 196 3,000 -420 Level Atlanta Center
12:25PM 35.3103 -80.9617 172° South 151 174 2,200 -660 Descending Atlanta Center
12:26PM 35.2706 -80.9581 176° South 153 176 1,700 -600 Descending Atlanta Center